Search for airport 
image banner adimage banner adimage banner ad
image banner ad

KRNM - Ramona

Located in Ramona, United States

ICAO - RNM, IATA -

Data provided by Airmate  

General information

Coordinates: N33°2'21" W116°54'55"
Elevation is 1395 feet MSL.
Magnetic variation is 12° East
View others Airports in California

Operational data

Special qualification required
Current time UTC:
Current local time:
Weather
METAR: KRNM 211253Z AUTO 00000KT 10SM CLR 11/10 A2996 RMK AO2 SLP133 T01110100
View NOTAMs / SUP AIP / TFR affecting this airport [VIEW]
Communications frequencies: [VIEW]

Runways:

RWY identifierQFULength (ft)Width (ft)SurfaceLDA (ft)
0999°5001150ASPH
27279°5001150ASPH

Airport contact information

Address: Ramona United States

Other aviation service providers

Flight schools

Cruiseair Aviation, Inc.

Cruiseair Aviation, Inc.

Jimmy Carter's Flight School

Jimmy Carter's Flight School
flyjcfs@yahoo.com+1(760)271-8806

Plus One Flyers - Rnm

Plus One Flyers - Rnm

Julie Keane Aviation

Julie Keane Aviation
jkaviation@gmail.com+1(760)703-1967

Satellite view of KRNM